sensor_id;sensor_type;location;lat;lon;timestamp;P1;durP1;ratioP1;P2;durP2;ratioP2
14369;SDS011;7268;50.792;0.252;2022-10-29T00:01:37;10.95;;;2.00;;
14369;SDS011;7268;50.792;0.252;2022-10-29T00:04:04;13.18;;;1.85;;
14369;SDS011;7268;50.792;0.252;2022-10-29T00:06:32;17.85;;;2.05;;
14369;SDS011;7268;50.792;0.252;2022-10-29T00:09:00;7.18;;;2.20;;
14369;SDS011;7268;50.792;0.252;2022-10-29T00:11:27;11.00;;;1.92;;
14369;SDS011;7268;50.792;0.252;2022-10-29T00:13:58;14.93;;;1.77;;
14369;SDS011;7268;50.792;0.252;2022-10-29T00:16:27;14.43;;;1.98;;
14369;SDS011;7268;50.792;0.252;2022-10-29T00:18:55;14.52;;;1.27;;
14369;SDS011;7268;50.792;0.252;2022-10-29T00:21:24;17.20;;;1.90;;
14369;SDS011;7268;50.792;0.252;2022-10-29T00:23:51;7.35;;;1.60;;
14369;SDS011;7268;50.792;0.252;2022-10-29T00:26:19;12.15;;;1.42;;
14369;SDS011;7268;50.792;0.252;2022-10-29T00:28:50;9.80;;;1.65;;
14369;SDS011;7268;50.792;0.252;2022-10-29T00:31:18;10.38;;;1.55;;
14369;SDS011;7268;50.792;0.252;2022-10-29T00:33:46;13.63;;;1.35;;
14369;SDS011;7268;50.792;0.252;2022-10-29T00:36:14;13.32;;;1.33;;
14369;SDS011;7268;50.792;0.252;2022-10-29T00:38:42;12.73;;;1.45;;
14369;SDS011;7268;50.792;0.252;2022-10-29T00:41:11;11.40;;;1.10;;
14369;SDS011;7268;50.792;0.252;2022-10-29T00:43:40;8.27;;;0.88;;
14369;SDS011;7268;50.792;0.252;2022-10-29T00:46:15;11.95;;;0.93;;
14369;SDS011;7268;50.792;0.252;2022-10-29T00:48:47;12.63;;;1.27;;
14369;SDS011;7268;50.792;0.252;2022-10-29T00:51:15;12.77;;;1.03;;
14369;SDS011;7268;50.792;0.252;2022-10-29T00:53:47;17.30;;;2.17;;
14369;SDS011;7268;50.792;0.252;2022-10-29T00:56:17;9.65;;;1.00;;
14369;SDS011;7268;50.792;0.252;2022-10-29T00:58:46;10.32;;;1.30;;
14369;SDS011;7268;50.792;0.252;2022-10-29T01:01:14;8.15;;;0.95;;
14369;SDS011;7268;50.792;0.252;2022-10-29T01:03:42;13.32;;;1.20;;
14369;SDS011;7268;50.792;0.252;2022-10-29T01:06:10;13.82;;;1.00;;
14369;SDS011;7268;50.792;0.252;2022-10-29T01:08:37;18.08;;;1.27;;
14369;SDS011;7268;50.792;0.252;2022-10-29T01:32:34;13.23;;;0.73;;
14369;SDS011;7268;50.792;0.252;2022-10-29T01:35:10;20.60;;;1.30;;
14369;SDS011;7268;50.792;0.252;2022-10-29T01:37:58;16.33;;;1.10;;
14369;SDS011;7268;50.792;0.252;2022-10-29T01:40:33;15.88;;;1.48;;
14369;SDS011;7268;50.792;0.252;2022-10-29T01:43:07;22.30;;;1.77;;
14369;SDS011;7268;50.792;0.252;2022-10-29T01:45:44;18.42;;;1.20;;
14369;SDS011;7268;50.792;0.252;2022-10-29T01:48:14;20.20;;;1.60;;
14369;SDS011;7268;50.792;0.252;2022-10-29T01:50:44;21.15;;;1.50;;
14369;SDS011;7268;50.792;0.252;2022-10-29T01:53:15;33.08;;;2.40;;
14369;SDS011;7268;50.792;0.252;2022-10-29T01:55:42;18.35;;;1.88;;
14369;SDS011;7268;50.792;0.252;2022-10-29T01:58:10;21.88;;;1.48;;
14369;SDS011;7268;50.792;0.252;2022-10-29T02:00:41;25.10;;;1.95;;
14369;SDS011;7268;50.792;0.252;2022-10-29T02:11:02;20.27;;;1.92;;
14369;SDS011;7268;50.792;0.252;2022-10-29T02:13:32;25.80;;;2.05;;
14369;SDS011;7268;50.792;0.252;2022-10-29T02:16:01;21.88;;;2.25;;
14369;SDS011;7268;50.792;0.252;2022-10-29T02:18:42;23.40;;;1.98;;
14369;SDS011;7268;50.792;0.252;2022-10-29T02:21:14;20.17;;;1.80;;
14369;SDS011;7268;50.792;0.252;2022-10-29T02:23:44;23.85;;;2.03;;
14369;SDS011;7268;50.792;0.252;2022-10-29T02:26:12;18.52;;;1.80;;
14369;SDS011;7268;50.792;0.252;2022-10-29T02:28:42;22.13;;;1.95;;
14369;SDS011;7268;50.792;0.252;2022-10-29T02:31:12;14.10;;;1.88;;
14369;SDS011;7268;50.792;0.252;2022-10-29T02:33:40;23.20;;;1.60;;
14369;SDS011;7268;50.792;0.252;2022-10-29T02:36:10;31.30;;;1.80;;
14369;SDS011;7268;50.792;0.252;2022-10-29T02:38:40;22.60;;;2.58;;
14369;SDS011;7268;50.792;0.252;2022-10-29T02:41:07;29.02;;;1.75;;
14369;SDS011;7268;50.792;0.252;2022-10-29T02:43:34;32.28;;;2.60;;
14369;SDS011;7268;50.792;0.252;2022-10-29T02:46:38;29.52;;;2.88;;
14369;SDS011;7268;50.792;0.252;2022-10-29T02:49:01;31.92;;;1.80;;
14369;SDS011;7268;50.792;0.252;2022-10-29T02:51:29;27.83;;;2.40;;
14369;SDS011;7268;50.792;0.252;2022-10-29T02:54:02;25.92;;;1.98;;
14369;SDS011;7268;50.792;0.252;2022-10-29T02:56:29;21.02;;;2.15;;
14369;SDS011;7268;50.792;0.252;2022-10-29T02:58:57;22.85;;;2.20;;
14369;SDS011;7268;50.792;0.252;2022-10-29T03:01:30;24.70;;;2.10;;
14369;SDS011;7268;50.792;0.252;2022-10-29T03:03:58;21.23;;;2.38;;
14369;SDS011;7268;50.792;0.252;2022-10-29T03:06:25;30.75;;;2.22;;
14369;SDS011;7268;50.792;0.252;2022-10-29T03:08:53;22.77;;;2.15;;
14369;SDS011;7268;50.792;0.252;2022-10-29T03:11:20;18.42;;;2.10;;
14369;SDS011;7268;50.792;0.252;2022-10-29T03:13:48;34.15;;;3.53;;
14369;SDS011;7268;50.792;0.252;2022-10-29T03:16:15;27.95;;;2.38;;
14369;SDS011;7268;50.792;0.252;2022-10-29T03:18:43;40.90;;;2.60;;
14369;SDS011;7268;50.792;0.252;2022-10-29T03:21:10;20.95;;;1.88;;
14369;SDS011;7268;50.792;0.252;2022-10-29T03:23:38;20.83;;;2.08;;
14369;SDS011;7268;50.792;0.252;2022-10-29T03:26:06;24.52;;;2.47;;
14369;SDS011;7268;50.792;0.252;2022-10-29T03:31:06;23.52;;;2.47;;
14369;SDS011;7268;50.792;0.252;2022-10-29T03:33:37;25.02;;;2.20;;
14369;SDS011;7268;50.792;0.252;2022-10-29T03:36:05;27.40;;;2.75;;
14369;SDS011;7268;50.792;0.252;2022-10-29T03:38:33;24.65;;;2.55;;
14369;SDS011;7268;50.792;0.252;2022-10-29T03:41:00;29.33;;;3.22;;
14369;SDS011;7268;50.792;0.252;2022-10-29T03:43:36;28.10;;;3.28;;
14369;SDS011;7268;50.792;0.252;2022-10-29T03:46:05;24.55;;;2.85;;
14369;SDS011;7268;50.792;0.252;2022-10-29T03:48:32;26.45;;;3.25;;
14369;SDS011;7268;50.792;0.252;2022-10-29T03:51:00;23.10;;;2.92;;
14369;SDS011;7268;50.792;0.252;2022-10-29T03:53:34;33.70;;;3.40;;
14369;SDS011;7268;50.792;0.252;2022-10-29T03:56:02;24.95;;;3.47;;
14369;SDS011;7268;50.792;0.252;2022-10-29T03:58:30;29.58;;;4.05;;
14369;SDS011;7268;50.792;0.252;2022-10-29T04:01:07;28.05;;;4.53;;
14369;SDS011;7268;50.792;0.252;2022-10-29T04:03:36;31.45;;;4.22;;
14369;SDS011;7268;50.792;0.252;2022-10-29T04:06:08;32.78;;;4.05;;
14369;SDS011;7268;50.792;0.252;2022-10-29T04:08:36;24.20;;;3.38;;
14369;SDS011;7268;50.792;0.252;2022-10-29T04:11:03;28.50;;;3.20;;
14369;SDS011;7268;50.792;0.252;2022-10-29T04:13:31;24.65;;;2.58;;
14369;SDS011;7268;50.792;0.252;2022-10-29T04:15:59;22.30;;;3.33;;
14369;SDS011;7268;50.792;0.252;2022-10-29T04:18:26;25.25;;;2.53;;
14369;SDS011;7268;50.792;0.252;2022-10-29T04:20:57;24.27;;;2.60;;
14369;SDS011;7268;50.792;0.252;2022-10-29T04:23:45;28.33;;;2.97;;
14369;SDS011;7268;50.792;0.252;2022-10-29T04:26:32;32.47;;;3.67;;
14369;SDS011;7268;50.792;0.252;2022-10-29T04:29:20;29.50;;;3.25;;
14369;SDS011;7268;50.792;0.252;2022-10-29T04:31:48;31.23;;;3.85;;
14369;SDS011;7268;50.792;0.252;2022-10-29T04:34:15;17.77;;;2.47;;
14369;SDS011;7268;50.792;0.252;2022-10-29T04:36:43;23.63;;;2.92;;
14369;SDS011;7268;50.792;0.252;2022-10-29T04:39:10;31.40;;;3.40;;
14369;SDS011;7268;50.792;0.252;2022-10-29T04:41:38;19.52;;;2.53;;
14369;SDS011;7268;50.792;0.252;2022-10-29T04:44:06;28.60;;;3.25;;
14369;SDS011;7268;50.792;0.252;2022-10-29T04:46:33;26.98;;;2.88;;
14369;SDS011;7268;50.792;0.252;2022-10-29T04:49:01;27.23;;;2.55;;
14369;SDS011;7268;50.792;0.252;2022-10-29T04:51:29;33.00;;;3.45;;
14369;SDS011;7268;50.792;0.252;2022-10-29T04:53:56;21.48;;;2.90;;
14369;SDS011;7268;50.792;0.252;2022-10-29T04:56:24;34.90;;;3.65;;
14369;SDS011;7268;50.792;0.252;2022-10-29T04:58:51;32.38;;;3.58;;
14369;SDS011;7268;50.792;0.252;2022-10-29T05:01:18;22.17;;;3.28;;
14369;SDS011;7268;50.792;0.252;2022-10-29T05:03:46;34.42;;;3.58;;
14369;SDS011;7268;50.792;0.252;2022-10-29T05:06:14;27.80;;;3.28;;
14369;SDS011;7268;50.792;0.252;2022-10-29T05:08:41;27.55;;;4.30;;
14369;SDS011;7268;50.792;0.252;2022-10-29T05:11:08;28.60;;;3.53;;
14369;SDS011;7268;50.792;0.252;2022-10-29T05:13:36;20.60;;;2.55;;
14369;SDS011;7268;50.792;0.252;2022-10-29T05:16:03;25.55;;;2.75;;
14369;SDS011;7268;50.792;0.252;2022-10-29T05:18:32;38.65;;;3.67;;
14369;SDS011;7268;50.792;0.252;2022-10-29T05:20:59;22.75;;;3.42;;
14369;SDS011;7268;50.792;0.252;2022-10-29T05:23:26;31.55;;;3.15;;
14369;SDS011;7268;50.792;0.252;2022-10-29T05:25:54;31.10;;;3.38;;
14369;SDS011;7268;50.792;0.252;2022-10-29T05:28:21;26.85;;;3.70;;
14369;SDS011;7268;50.792;0.252;2022-10-29T05:30:50;28.90;;;3.95;;
14369;SDS011;7268;50.792;0.252;2022-10-29T05:33:22;25.33;;;3.17;;
14369;SDS011;7268;50.792;0.252;2022-10-29T05:35:49;22.75;;;2.88;;
14369;SDS011;7268;50.792;0.252;2022-10-29T05:38:17;20.45;;;2.97;;
14369;SDS011;7268;50.792;0.252;2022-10-29T05:40:44;29.15;;;3.65;;
14369;SDS011;7268;50.792;0.252;2022-10-29T05:43:12;21.17;;;2.80;;
14369;SDS011;7268;50.792;0.252;2022-10-29T05:45:40;21.13;;;3.20;;
14369;SDS011;7268;50.792;0.252;2022-10-29T05:48:08;16.63;;;3.03;;
14369;SDS011;7268;50.792;0.252;2022-10-29T05:50:36;22.35;;;3.70;;
14369;SDS011;7268;50.792;0.252;2022-10-29T05:53:04;22.77;;;3.70;;
14369;SDS011;7268;50.792;0.252;2022-10-29T05:55:32;23.10;;;3.30;;
14369;SDS011;7268;50.792;0.252;2022-10-29T05:58:01;28.58;;;3.63;;
14369;SDS011;7268;50.792;0.252;2022-10-29T06:00:29;27.40;;;3.03;;
14369;SDS011;7268;50.792;0.252;2022-10-29T06:02:57;22.02;;;3.17;;
14369;SDS011;7268;50.792;0.252;2022-10-29T06:05:25;22.67;;;3.15;;
14369;SDS011;7268;50.792;0.252;2022-10-29T06:07:57;21.88;;;2.92;;
14369;SDS011;7268;50.792;0.252;2022-10-29T06:10:25;25.00;;;3.13;;
14369;SDS011;7268;50.792;0.252;2022-10-29T06:12:55;18.40;;;3.30;;
14369;SDS011;7268;50.792;0.252;2022-10-29T06:15:22;23.95;;;3.53;;
14369;SDS011;7268;50.792;0.252;2022-10-29T06:17:50;28.95;;;3.90;;
14369;SDS011;7268;50.792;0.252;2022-10-29T06:20:18;19.05;;;3.60;;
14369;SDS011;7268;50.792;0.252;2022-10-29T06:22:46;20.63;;;3.85;;
14369;SDS011;7268;50.792;0.252;2022-10-29T06:25:14;29.58;;;4.05;;
14369;SDS011;7268;50.792;0.252;2022-10-29T06:27:41;18.92;;;4.50;;
14369;SDS011;7268;50.792;0.252;2022-10-29T06:30:09;21.25;;;4.55;;
14369;SDS011;7268;50.792;0.252;2022-10-29T06:32:36;23.88;;;4.30;;
14369;SDS011;7268;50.792;0.252;2022-10-29T06:35:03;26.05;;;4.75;;
14369;SDS011;7268;50.792;0.252;2022-10-29T06:37:30;21.88;;;5.30;;
14369;SDS011;7268;50.792;0.252;2022-10-29T06:39:58;41.17;;;5.40;;
14369;SDS011;7268;50.792;0.252;2022-10-29T06:42:25;24.50;;;5.22;;
14369;SDS011;7268;50.792;0.252;2022-10-29T06:44:52;17.73;;;5.57;;
14369;SDS011;7268;50.792;0.252;2022-10-29T06:47:20;18.92;;;6.03;;
14369;SDS011;7268;50.792;0.252;2022-10-29T06:49:47;19.77;;;5.43;;
14369;SDS011;7268;50.792;0.252;2022-10-29T06:52:14;21.70;;;5.70;;
14369;SDS011;7268;50.792;0.252;2022-10-29T06:54:41;20.13;;;5.45;;
14369;SDS011;7268;50.792;0.252;2022-10-29T06:57:08;20.85;;;5.82;;
14369;SDS011;7268;50.792;0.252;2022-10-29T06:59:35;25.02;;;6.40;;
14369;SDS011;7268;50.792;0.252;2022-10-29T07:02:03;20.40;;;5.95;;
14369;SDS011;7268;50.792;0.252;2022-10-29T07:04:30;23.48;;;5.05;;
14369;SDS011;7268;50.792;0.252;2022-10-29T07:06:57;22.60;;;4.78;;
14369;SDS011;7268;50.792;0.252;2022-10-29T07:09:24;32.78;;;5.68;;
14369;SDS011;7268;50.792;0.252;2022-10-29T07:11:51;20.67;;;5.65;;
14369;SDS011;7268;50.792;0.252;2022-10-29T07:14:19;21.65;;;5.72;;
14369;SDS011;7268;50.792;0.252;2022-10-29T07:16:46;21.50;;;6.30;;
14369;SDS011;7268;50.792;0.252;2022-10-29T07:19:13;26.27;;;6.13;;
14369;SDS011;7268;50.792;0.252;2022-10-29T07:21:40;20.08;;;5.82;;
14369;SDS011;7268;50.792;0.252;2022-10-29T07:24:08;34.70;;;5.18;;
14369;SDS011;7268;50.792;0.252;2022-10-29T07:26:35;18.73;;;6.03;;
14369;SDS011;7268;50.792;0.252;2022-10-29T07:29:02;30.10;;;5.22;;
14369;SDS011;7268;50.792;0.252;2022-10-29T07:31:29;25.58;;;6.13;;
14369;SDS011;7268;50.792;0.252;2022-10-29T07:33:57;22.98;;;5.22;;
14369;SDS011;7268;50.792;0.252;2022-10-29T07:36:24;16.90;;;4.95;;
14369;SDS011;7268;50.792;0.252;2022-10-29T07:38:51;25.52;;;5.35;;
14369;SDS011;7268;50.792;0.252;2022-10-29T07:41:18;20.55;;;4.78;;
14369;SDS011;7268;50.792;0.252;2022-10-29T07:43:45;18.13;;;4.65;;
14369;SDS011;7268;50.792;0.252;2022-10-29T07:46:13;23.40;;;5.25;;
14369;SDS011;7268;50.792;0.252;2022-10-29T07:48:40;22.73;;;5.15;;
14369;SDS011;7268;50.792;0.252;2022-10-29T07:51:07;17.77;;;4.80;;
14369;SDS011;7268;50.792;0.252;2022-10-29T07:53:34;24.83;;;5.15;;
14369;SDS011;7268;50.792;0.252;2022-10-29T07:56:01;21.77;;;4.70;;
14369;SDS011;7268;50.792;0.252;2022-10-29T07:58:29;32.40;;;4.25;;
14369;SDS011;7268;50.792;0.252;2022-10-29T08:00:57;22.77;;;6.15;;
14369;SDS011;7268;50.792;0.252;2022-10-29T08:03:25;23.25;;;5.40;;
14369;SDS011;7268;50.792;0.252;2022-10-29T08:05:55;13.25;;;4.28;;
14369;SDS011;7268;50.792;0.252;2022-10-29T08:08:23;24.90;;;4.93;;
14369;SDS011;7268;50.792;0.252;2022-10-29T08:10:50;26.60;;;4.45;;
14369;SDS011;7268;50.792;0.252;2022-10-29T08:13:17;15.90;;;3.90;;
14369;SDS011;7268;50.792;0.252;2022-10-29T08:15:45;26.65;;;4.43;;
14369;SDS011;7268;50.792;0.252;2022-10-29T08:18:15;14.55;;;3.67;;
14369;SDS011;7268;50.792;0.252;2022-10-29T08:20:43;21.58;;;3.72;;
14369;SDS011;7268;50.792;0.252;2022-10-29T08:23:12;18.73;;;3.95;;
14369;SDS011;7268;50.792;0.252;2022-10-29T08:25:40;23.92;;;4.10;;
14369;SDS011;7268;50.792;0.252;2022-10-29T08:28:09;22.38;;;3.60;;
14369;SDS011;7268;50.792;0.252;2022-10-29T08:30:37;16.63;;;3.70;;
14369;SDS011;7268;50.792;0.252;2022-10-29T08:33:04;20.75;;;3.45;;
14369;SDS011;7268;50.792;0.252;2022-10-29T08:35:32;27.13;;;4.53;;
14369;SDS011;7268;50.792;0.252;2022-10-29T08:37:59;17.98;;;3.60;;
14369;SDS011;7268;50.792;0.252;2022-10-29T08:45:27;16.33;;;3.70;;
14369;SDS011;7268;50.792;0.252;2022-10-29T08:50:38;16.85;;;3.38;;
14369;SDS011;7268;50.792;0.252;2022-10-29T08:53:13;21.27;;;3.22;;
14369;SDS011;7268;50.792;0.252;2022-10-29T08:55:49;17.00;;;3.22;;
14369;SDS011;7268;50.792;0.252;2022-10-29T09:00:43;15.52;;;3.20;;
14369;SDS011;7268;50.792;0.252;2022-10-29T09:03:12;10.02;;;2.75;;
14369;SDS011;7268;50.792;0.252;2022-10-29T09:10:46;19.15;;;3.00;;
14369;SDS011;7268;50.792;0.252;2022-10-29T09:16:08;10.48;;;3.15;;
14369;SDS011;7268;50.792;0.252;2022-10-29T09:19:00;15.18;;;3.25;;
14369;SDS011;7268;50.792;0.252;2022-10-29T09:21:26;12.20;;;2.92;;
14369;SDS011;7268;50.792;0.252;2022-10-29T09:24:10;11.20;;;3.13;;
14369;SDS011;7268;50.792;0.252;2022-10-29T09:31:52;16.58;;;3.85;;
14369;SDS011;7268;50.792;0.252;2022-10-29T09:34:27;16.50;;;3.17;;
14369;SDS011;7268;50.792;0.252;2022-10-29T09:36:56;18.10;;;3.20;;
14369;SDS011;7268;50.792;0.252;2022-10-29T09:39:27;15.85;;;3.60;;
14369;SDS011;7268;50.792;0.252;2022-10-29T09:42:00;16.88;;;3.35;;
14369;SDS011;7268;50.792;0.252;2022-10-29T09:44:39;16.45;;;2.80;;
14369;SDS011;7268;50.792;0.252;2022-10-29T09:49:47;14.57;;;3.17;;
14369;SDS011;7268;50.792;0.252;2022-10-29T09:52:22;16.27;;;3.38;;
14369;SDS011;7268;50.792;0.252;2022-10-29T09:54:50;13.45;;;3.08;;
14369;SDS011;7268;50.792;0.252;2022-10-29T09:57:19;11.27;;;3.58;;
14369;SDS011;7268;50.792;0.252;2022-10-29T09:59:48;12.20;;;3.22;;
14369;SDS011;7268;50.792;0.252;2022-10-29T10:04:50;14.88;;;3.75;;
14369;SDS011;7268;50.792;0.252;2022-10-29T10:07:20;18.17;;;3.50;;
14369;SDS011;7268;50.792;0.252;2022-10-29T10:12:19;16.27;;;3.55;;
14369;SDS011;7268;50.792;0.252;2022-10-29T10:14:47;20.02;;;3.80;;
14369;SDS011;7268;50.792;0.252;2022-10-29T10:17:15;22.58;;;3.67;;
14369;SDS011;7268;50.792;0.252;2022-10-29T10:19:43;15.38;;;3.70;;
14369;SDS011;7268;50.792;0.252;2022-10-29T10:22:18;17.80;;;3.97;;
14369;SDS011;7268;50.792;0.252;2022-10-29T10:24:46;18.52;;;4.05;;
14369;SDS011;7268;50.792;0.252;2022-10-29T10:29:44;16.45;;;3.95;;
14369;SDS011;7268;50.792;0.252;2022-10-29T10:32:30;20.13;;;3.85;;
14369;SDS011;7268;50.792;0.252;2022-10-29T10:34:58;17.13;;;4.47;;
14369;SDS011;7268;50.792;0.252;2022-10-29T10:37:25;14.27;;;3.90;;
14369;SDS011;7268;50.792;0.252;2022-10-29T10:39:59;14.02;;;3.72;;
14369;SDS011;7268;50.792;0.252;2022-10-29T10:42:30;26.05;;;4.18;;
14369;SDS011;7268;50.792;0.252;2022-10-29T10:45:04;13.45;;;3.60;;
14369;SDS011;7268;50.792;0.252;2022-10-29T10:47:33;13.65;;;2.67;;
14369;SDS011;7268;50.792;0.252;2022-10-29T10:52:38;16.58;;;3.75;;
14369;SDS011;7268;50.792;0.252;2022-10-29T10:55:09;18.90;;;3.85;;
14369;SDS011;7268;50.792;0.252;2022-10-29T10:57:46;14.15;;;3.60;;
14369;SDS011;7268;50.792;0.252;2022-10-29T11:00:16;13.13;;;3.75;;
14369;SDS011;7268;50.792;0.252;2022-10-29T11:02:49;12.88;;;3.40;;
14369;SDS011;7268;50.792;0.252;2022-10-29T11:05:19;14.95;;;4.03;;
14369;SDS011;7268;50.792;0.252;2022-10-29T11:07:50;15.32;;;4.15;;
14369;SDS011;7268;50.792;0.252;2022-10-29T11:10:19;17.02;;;3.80;;
14369;SDS011;7268;50.792;0.252;2022-10-29T11:12:49;12.32;;;3.30;;
14369;SDS011;7268;50.792;0.252;2022-10-29T11:15:26;13.25;;;3.75;;
14369;SDS011;7268;50.792;0.252;2022-10-29T11:18:21;18.23;;;3.85;;
14369;SDS011;7268;50.792;0.252;2022-10-29T11:20:48;22.55;;;4.18;;
14369;SDS011;7268;50.792;0.252;2022-10-29T11:23:25;16.98;;;3.72;;
14369;SDS011;7268;50.792;0.252;2022-10-29T11:25:55;13.77;;;3.30;;
14369;SDS011;7268;50.792;0.252;2022-10-29T11:28:32;11.98;;;4.22;;
14369;SDS011;7268;50.792;0.252;2022-10-29T11:31:04;22.65;;;3.78;;
14369;SDS011;7268;50.792;0.252;2022-10-29T11:33:44;11.90;;;3.30;;
14369;SDS011;7268;50.792;0.252;2022-10-29T11:38:51;11.68;;;3.20;;
14369;SDS011;7268;50.792;0.252;2022-10-29T11:43:47;17.45;;;3.60;;
14369;SDS011;7268;50.792;0.252;2022-10-29T11:54:35;16.30;;;3.65;;
14369;SDS011;7268;50.792;0.252;2022-10-29T11:57:27;10.05;;;4.28;;
14369;SDS011;7268;50.792;0.252;2022-10-29T12:02:34;17.30;;;4.03;;
14369;SDS011;7268;50.792;0.252;2022-10-29T12:05:52;19.08;;;4.30;;
14369;SDS011;7268;50.792;0.252;2022-10-29T12:13:00;26.10;;;4.25;;
14369;SDS011;7268;50.792;0.252;2022-10-29T12:15:36;15.23;;;3.42;;
14369;SDS011;7268;50.792;0.252;2022-10-29T12:26:28;16.50;;;4.03;;
14369;SDS011;7268;50.792;0.252;2022-10-29T12:34:12;20.60;;;4.55;;
14369;SDS011;7268;50.792;0.252;2022-10-29T12:39:26;19.23;;;4.90;;
14369;SDS011;7268;50.792;0.252;2022-10-29T12:41:56;17.40;;;4.20;;
14369;SDS011;7268;50.792;0.252;2022-10-29T12:51:57;19.58;;;3.95;;
14369;SDS011;7268;50.792;0.252;2022-10-29T12:57:02;21.60;;;4.47;;
14369;SDS011;7268;50.792;0.252;2022-10-29T12:59:30;14.48;;;4.85;;
14369;SDS011;7268;50.792;0.252;2022-10-29T13:02:43;17.48;;;4.07;;
14369;SDS011;7268;50.792;0.252;2022-10-29T13:07:37;18.80;;;5.07;;
14369;SDS011;7268;50.792;0.252;2022-10-29T13:15:21;16.23;;;5.30;;
14369;SDS011;7268;50.792;0.252;2022-10-29T13:17:50;32.72;;;5.63;;
14369;SDS011;7268;50.792;0.252;2022-10-29T13:20:23;18.55;;;4.40;;
14369;SDS011;7268;50.792;0.252;2022-10-29T13:22:56;15.75;;;3.72;;
14369;SDS011;7268;50.792;0.252;2022-10-29T13:30:35;26.85;;;6.15;;
14369;SDS011;7268;50.792;0.252;2022-10-29T13:41:34;18.88;;;4.32;;
14369;SDS011;7268;50.792;0.252;2022-10-29T13:44:09;21.80;;;5.15;;
14369;SDS011;7268;50.792;0.252;2022-10-29T13:49:22;16.75;;;4.30;;
14369;SDS011;7268;50.792;0.252;2022-10-29T13:51:58;19.35;;;4.88;;
14369;SDS011;7268;50.792;0.252;2022-10-29T13:59:39;14.68;;;4.30;;
14369;SDS011;7268;50.792;0.252;2022-10-29T14:04:54;15.93;;;4.10;;
14369;SDS011;7268;50.792;0.252;2022-10-29T14:07:29;15.93;;;4.35;;
14369;SDS011;7268;50.792;0.252;2022-10-29T14:10:01;18.23;;;3.92;;
14369;SDS011;7268;50.792;0.252;2022-10-29T14:12:32;16.98;;;4.97;;
14369;SDS011;7268;50.792;0.252;2022-10-29T14:15:05;16.48;;;4.43;;
14369;SDS011;7268;50.792;0.252;2022-10-29T14:17:36;18.33;;;4.55;;
14369;SDS011;7268;50.792;0.252;2022-10-29T14:20:17;23.25;;;4.32;;
14369;SDS011;7268;50.792;0.252;2022-10-29T14:22:49;12.35;;;4.22;;
14369;SDS011;7268;50.792;0.252;2022-10-29T14:28:09;14.73;;;3.80;;
14369;SDS011;7268;50.792;0.252;2022-10-29T14:30:36;21.17;;;4.60;;
14369;SDS011;7268;50.792;0.252;2022-10-29T14:33:23;20.42;;;4.47;;
14369;SDS011;7268;50.792;0.252;2022-10-29T14:35:51;15.57;;;4.75;;
14369;SDS011;7268;50.792;0.252;2022-10-29T14:38:19;18.17;;;4.82;;
14369;SDS011;7268;50.792;0.252;2022-10-29T14:40:48;15.23;;;4.55;;
14369;SDS011;7268;50.792;0.252;2022-10-29T14:43:23;20.92;;;4.63;;
14369;SDS011;7268;50.792;0.252;2022-10-29T14:45:50;16.80;;;4.22;;
14369;SDS011;7268;50.792;0.252;2022-10-29T14:48:20;17.30;;;4.07;;
14369;SDS011;7268;50.792;0.252;2022-10-29T14:50:48;20.63;;;5.30;;
14369;SDS011;7268;50.792;0.252;2022-10-29T14:55:55;21.23;;;5.15;;
14369;SDS011;7268;50.792;0.252;2022-10-29T14:58:24;29.33;;;6.07;;
14369;SDS011;7268;50.792;0.252;2022-10-29T15:00:54;28.15;;;6.22;;
14369;SDS011;7268;50.792;0.252;2022-10-29T15:03:22;28.55;;;6.20;;
14369;SDS011;7268;50.792;0.252;2022-10-29T15:06:07;24.35;;;6.10;;
14369;SDS011;7268;50.792;0.252;2022-10-29T15:08:39;24.30;;;5.78;;
14369;SDS011;7268;50.792;0.252;2022-10-29T15:13:53;26.10;;;6.15;;
14369;SDS011;7268;50.792;0.252;2022-10-29T15:16:20;23.42;;;5.80;;
14369;SDS011;7268;50.792;0.252;2022-10-29T15:18:50;28.35;;;6.28;;
14369;SDS011;7268;50.792;0.252;2022-10-29T15:21:22;20.40;;;5.25;;
14369;SDS011;7268;50.792;0.252;2022-10-29T15:23:53;28.45;;;5.53;;
14369;SDS011;7268;50.792;0.252;2022-10-29T15:26:22;19.42;;;5.15;;
14369;SDS011;7268;50.792;0.252;2022-10-29T15:28:52;18.75;;;5.38;;
14369;SDS011;7268;50.792;0.252;2022-10-29T15:31:21;14.77;;;5.40;;
14369;SDS011;7268;50.792;0.252;2022-10-29T15:33:50;19.38;;;5.60;;
14369;SDS011;7268;50.792;0.252;2022-10-29T15:36:17;22.33;;;5.80;;
14369;SDS011;7268;50.792;0.252;2022-10-29T15:41:34;19.90;;;5.35;;
14369;SDS011;7268;50.792;0.252;2022-10-29T15:44:11;18.90;;;5.70;;
14369;SDS011;7268;50.792;0.252;2022-10-29T15:46:50;17.17;;;5.15;;
14369;SDS011;7268;50.792;0.252;2022-10-29T15:49:23;15.93;;;5.25;;
14369;SDS011;7268;50.792;0.252;2022-10-29T15:51:56;18.88;;;5.35;;
14369;SDS011;7268;50.792;0.252;2022-10-29T15:54:29;20.33;;;4.72;;
14369;SDS011;7268;50.792;0.252;2022-10-29T15:56:58;20.23;;;4.95;;
14369;SDS011;7268;50.792;0.252;2022-10-29T15:59:25;15.18;;;4.55;;
14369;SDS011;7268;50.792;0.252;2022-10-29T16:01:55;16.63;;;5.25;;
14369;SDS011;7268;50.792;0.252;2022-10-29T16:04:22;16.50;;;5.00;;
14369;SDS011;7268;50.792;0.252;2022-10-29T16:06:50;19.65;;;5.07;;
14369;SDS011;7268;50.792;0.252;2022-10-29T16:09:18;20.15;;;5.20;;
14369;SDS011;7268;50.792;0.252;2022-10-29T16:11:46;23.65;;;5.85;;
14369;SDS011;7268;50.792;0.252;2022-10-29T16:14:15;22.60;;;4.95;;
14369;SDS011;7268;50.792;0.252;2022-10-29T16:16:42;22.10;;;4.82;;
14369;SDS011;7268;50.792;0.252;2022-10-29T16:19:10;15.50;;;5.28;;
14369;SDS011;7268;50.792;0.252;2022-10-29T16:21:37;22.35;;;5.20;;
14369;SDS011;7268;50.792;0.252;2022-10-29T16:24:11;18.83;;;4.72;;
14369;SDS011;7268;50.792;0.252;2022-10-29T16:26:39;18.42;;;5.20;;
14369;SDS011;7268;50.792;0.252;2022-10-29T16:29:10;22.48;;;5.25;;
14369;SDS011;7268;50.792;0.252;2022-10-29T16:31:41;17.08;;;4.72;;
14369;SDS011;7268;50.792;0.252;2022-10-29T16:34:09;18.05;;;4.90;;
14369;SDS011;7268;50.792;0.252;2022-10-29T16:36:38;12.88;;;4.32;;
14369;SDS011;7268;50.792;0.252;2022-10-29T16:39:06;20.85;;;5.20;;
14369;SDS011;7268;50.792;0.252;2022-10-29T16:41:33;17.25;;;4.95;;
14369;SDS011;7268;50.792;0.252;2022-10-29T16:44:00;19.67;;;5.18;;
14369;SDS011;7268;50.792;0.252;2022-10-29T16:46:27;16.83;;;4.72;;
14369;SDS011;7268;50.792;0.252;2022-10-29T16:48:57;17.67;;;4.93;;
14369;SDS011;7268;50.792;0.252;2022-10-29T16:51:31;24.90;;;5.25;;
14369;SDS011;7268;50.792;0.252;2022-10-29T16:53:58;20.33;;;5.22;;
14369;SDS011;7268;50.792;0.252;2022-10-29T16:56:28;20.95;;;5.20;;
14369;SDS011;7268;50.792;0.252;2022-10-29T16:58:57;24.27;;;5.40;;
14369;SDS011;7268;50.792;0.252;2022-10-29T17:01:27;21.60;;;5.35;;
14369;SDS011;7268;50.792;0.252;2022-10-29T17:03:54;20.80;;;6.10;;
14369;SDS011;7268;50.792;0.252;2022-10-29T17:06:22;19.02;;;4.82;;
14369;SDS011;7268;50.792;0.252;2022-10-29T17:08:49;30.35;;;5.25;;
14369;SDS011;7268;50.792;0.252;2022-10-29T17:11:16;19.75;;;5.65;;
14369;SDS011;7268;50.792;0.252;2022-10-29T17:13:43;23.92;;;5.25;;
14369;SDS011;7268;50.792;0.252;2022-10-29T17:16:11;23.23;;;5.38;;
14369;SDS011;7268;50.792;0.252;2022-10-29T17:18:44;18.15;;;5.35;;
14369;SDS011;7268;50.792;0.252;2022-10-29T17:21:16;21.07;;;5.90;;
14369;SDS011;7268;50.792;0.252;2022-10-29T17:23:43;23.95;;;5.60;;
14369;SDS011;7268;50.792;0.252;2022-10-29T17:26:10;21.30;;;5.30;;
14369;SDS011;7268;50.792;0.252;2022-10-29T17:28:40;29.63;;;6.10;;
14369;SDS011;7268;50.792;0.252;2022-10-29T17:31:07;22.75;;;6.03;;
14369;SDS011;7268;50.792;0.252;2022-10-29T17:33:35;28.70;;;6.20;;
14369;SDS011;7268;50.792;0.252;2022-10-29T17:36:03;27.63;;;6.93;;
14369;SDS011;7268;50.792;0.252;2022-10-29T17:38:30;22.88;;;5.50;;
14369;SDS011;7268;50.792;0.252;2022-10-29T17:40:57;33.85;;;6.25;;
14369;SDS011;7268;50.792;0.252;2022-10-29T17:43:25;26.95;;;6.03;;